sensor_id;sensor_type;location;lat;lon;timestamp;pressure;altitude;pressure_sealevel;temperature;humidity
6136;BME280;24008;42.664;23.372;2022-08-21T13:46:10;93963.09;;;26.60;58.21
6136;BME280;24008;42.664;23.372;2022-08-21T13:48:40;94014.53;;;26.76;58.62
6136;BME280;24008;42.664;23.372;2022-08-21T13:51:08;94011.44;;;26.94;58.14
6136;BME280;24008;42.664;23.372;2022-08-21T13:53:44;93978.91;;;26.90;57.65
6136;BME280;24008;42.664;23.372;2022-08-21T13:56:22;93966.56;;;26.80;57.38
6136;BME280;24008;42.664;23.372;2022-08-21T13:58:49;94009.09;;;27.08;57.26
6136;BME280;24008;42.664;23.372;2022-08-21T14:01:21;93976.75;;;26.82;57.80
6136;BME280;24008;42.664;23.372;2022-08-21T14:03:52;93991.53;;;27.03;57.80
6136;BME280;24008;42.664;23.372;2022-08-21T14:06:21;94006.59;;;26.61;57.58
6136;BME280;24008;42.664;23.372;2022-08-21T14:08:50;94005.06;;;26.65;58.49
6136;BME280;24008;42.664;23.372;2022-08-21T14:11:18;93997.72;;;26.72;57.79
6136;BME280;24008;42.664;23.372;2022-08-21T14:13:48;93915.22;;;26.12;57.60
6136;BME280;24008;42.664;23.372;2022-08-21T14:16:20;93774.81;;;25.28;57.95
6136;BME280;24008;42.664;23.372;2022-08-21T14:18:51;93974.09;;;26.62;58.13
6136;BME280;24008;42.664;23.372;2022-08-21T14:21:28;93993.53;;;26.66;58.71
6136;BME280;24008;42.664;23.372;2022-08-21T14:24:07;93994.03;;;26.63;59.13
6136;BME280;24008;42.664;23.372;2022-08-21T14:26:43;93993.75;;;26.59;59.70
6136;BME280;24008;42.664;23.372;2022-08-21T14:29:13;93962.75;;;26.31;60.51
6136;BME280;24008;42.664;23.372;2022-08-21T14:31:43;93846.84;;;25.51;61.43
6136;BME280;24008;42.664;23.372;2022-08-21T14:34:16;93953.75;;;26.16;61.10
6136;BME280;24008;42.664;23.372;2022-08-21T14:36:43;93982.16;;;26.40;59.96
6136;BME280;24008;42.664;23.372;2022-08-21T14:39:10;93997.16;;;26.54;59.51
6136;BME280;24008;42.664;23.372;2022-08-21T14:41:37;94001.81;;;26.37;59.40
6136;BME280;24008;42.664;23.372;2022-08-21T14:44:06;94001.59;;;26.54;58.82
6136;BME280;24008;42.664;23.372;2022-08-21T14:46:34;93880.34;;;25.49;59.20
6136;BME280;24008;42.664;23.372;2022-08-21T14:49:02;93995.31;;;26.60;58.95
6136;BME280;24008;42.664;23.372;2022-08-21T14:51:29;93994.59;;;26.85;58.08
6136;BME280;24008;42.664;23.372;2022-08-21T14:53:56;93991.00;;;27.01;57.43
6136;BME280;24008;42.664;23.372;2022-08-21T14:56:23;93993.91;;;27.20;57.08
6136;BME280;24008;42.664;23.372;2022-08-21T14:58:51;93981.56;;;27.05;57.65
6136;BME280;24008;42.664;23.372;2022-08-21T15:01:22;93839.31;;;26.27;57.07
6136;BME280;24008;42.664;23.372;2022-08-21T15:03:48;93982.63;;;27.35;55.14
6136;BME280;24008;42.664;23.372;2022-08-21T15:06:18;93988.41;;;27.37;54.50
6136;BME280;24008;42.664;23.372;2022-08-21T15:08:46;93986.31;;;27.13;54.24
6136;BME280;24008;42.664;23.372;2022-08-21T15:11:17;93974.22;;;27.12;53.84
6136;BME280;24008;42.664;23.372;2022-08-21T15:13:44;93974.63;;;26.64;54.53
6136;BME280;24008;42.664;23.372;2022-08-21T15:16:12;93963.66;;;26.67;55.22
6136;BME280;24008;42.664;23.372;2022-08-21T15:18:39;93922.06;;;26.23;55.18
6136;BME280;24008;42.664;23.372;2022-08-21T15:21:08;93872.72;;;25.90;55.47
6136;BME280;24008;42.664;23.372;2022-08-21T15:23:36;93944.41;;;26.31;56.29
6136;BME280;24008;42.664;23.372;2022-08-21T15:26:04;93778.59;;;25.05;56.47
6136;BME280;24008;42.664;23.372;2022-08-21T15:28:31;93803.78;;;25.17;57.03
6136;BME280;24008;42.664;23.372;2022-08-21T15:30:59;93816.91;;;25.27;57.72
6136;BME280;24008;42.664;23.372;2022-08-21T15:33:27;93869.34;;;25.47;58.33
6136;BME280;24008;42.664;23.372;2022-08-21T15:35:53;93886.19;;;25.61;58.76
6136;BME280;24008;42.664;23.372;2022-08-21T15:38:20;93741.88;;;24.85;58.43
6136;BME280;24008;42.664;23.372;2022-08-21T15:40:49;93920.97;;;26.09;58.40
6136;BME280;24008;42.664;23.372;2022-08-21T15:43:21;93896.81;;;25.92;59.58
6136;BME280;24008;42.664;23.372;2022-08-21T15:45:49;93921.34;;;25.75;60.66
6136;BME280;24008;42.664;23.372;2022-08-21T15:48:16;93866.34;;;25.28;61.55
6136;BME280;24008;42.664;23.372;2022-08-21T15:50:43;93894.38;;;25.33;62.34
6136;BME280;24008;42.664;23.372;2022-08-21T15:53:10;93872.13;;;25.30;62.14
6136;BME280;24008;42.664;23.372;2022-08-21T15:55:37;93907.63;;;25.58;62.07
6136;BME280;24008;42.664;23.372;2022-08-21T15:58:05;93920.00;;;25.68;62.21
6136;BME280;24008;42.664;23.372;2022-08-21T16:00:35;93925.94;;;25.58;60.96
6136;BME280;24008;42.664;23.372;2022-08-21T16:03:04;93931.66;;;25.55;61.33
6136;BME280;24008;42.664;23.372;2022-08-21T16:05:31;93886.66;;;24.84;62.84
6136;BME280;24008;42.664;23.372;2022-08-21T16:07:59;93870.34;;;24.72;63.38
6136;BME280;24008;42.664;23.372;2022-08-21T16:10:26;93936.59;;;25.15;63.42
6136;BME280;24008;42.664;23.372;2022-08-21T16:12:55;93949.34;;;24.79;65.29
6136;BME280;24008;42.664;23.372;2022-08-21T16:15:25;93948.88;;;25.09;65.15
6136;BME280;24008;42.664;23.372;2022-08-21T16:17:53;93955.28;;;25.28;64.09
6136;BME280;24008;42.664;23.372;2022-08-21T16:20:23;93968.16;;;25.35;64.31
6136;BME280;24008;42.664;23.372;2022-08-21T16:22:51;93967.66;;;25.06;64.65
6136;BME280;24008;42.664;23.372;2022-08-21T16:25:18;93825.84;;;24.08;64.10
6136;BME280;24008;42.664;23.372;2022-08-21T16:27:48;93983.47;;;25.21;63.91
6136;BME280;24008;42.664;23.372;2022-08-21T16:30:17;93976.00;;;25.35;63.49
6136;BME280;24008;42.664;23.372;2022-08-21T16:32:46;93651.53;;;23.08;63.92
6136;BME280;24008;42.664;23.372;2022-08-21T16:35:15;93990.56;;;25.26;64.54
6136;BME280;24008;42.664;23.372;2022-08-21T16:37:43;93556.22;;;22.68;63.55
6136;BME280;24008;42.664;23.372;2022-08-21T16:40:11;93976.41;;;25.54;63.55
6136;BME280;24008;42.664;23.372;2022-08-21T16:42:40;93974.13;;;25.62;62.61
6136;BME280;24008;42.664;23.372;2022-08-21T16:45:10;93973.13;;;25.68;62.23
6136;BME280;24008;42.664;23.372;2022-08-21T16:47:37;93937.38;;;25.47;62.01
6136;BME280;24008;42.664;23.372;2022-08-21T16:50:07;93977.63;;;25.78;61.76
6136;BME280;24008;42.664;23.372;2022-08-21T16:52:34;93989.94;;;25.77;61.90
6136;BME280;24008;42.664;23.372;2022-08-21T16:55:01;93956.75;;;25.51;61.85
6136;BME280;24008;42.664;23.372;2022-08-21T16:57:29;93570.88;;;22.96;61.16
6136;BME280;24008;42.664;23.372;2022-08-21T16:59:56;93783.09;;;24.14;61.49
6136;BME280;24008;42.664;23.372;2022-08-21T17:02:29;93855.28;;;24.52;61.82
6136;BME280;24008;42.664;23.372;2022-08-21T17:04:57;93982.84;;;25.41;61.91
6136;BME280;24008;42.664;23.372;2022-08-21T17:07:27;93962.03;;;25.24;62.82
6136;BME280;24008;42.664;23.372;2022-08-21T17:09:54;93950.72;;;25.13;63.45
6136;BME280;24008;42.664;23.372;2022-08-21T17:12:21;93867.50;;;24.47;63.68
6136;BME280;24008;42.664;23.372;2022-08-21T17:14:48;94006.63;;;25.34;64.15
6136;BME280;24008;42.664;23.372;2022-08-21T17:17:15;93951.63;;;24.97;64.23
6136;BME280;24008;42.664;23.372;2022-08-21T17:19:43;94007.66;;;25.33;64.34
6136;BME280;24008;42.664;23.372;2022-08-21T17:22:10;94013.69;;;25.39;64.58
6136;BME280;24008;42.664;23.372;2022-08-21T17:24:39;94024.16;;;25.39;64.78
6136;BME280;24008;42.664;23.372;2022-08-21T17:27:06;94040.88;;;25.38;64.92
6136;BME280;24008;42.664;23.372;2022-08-21T17:29:36;94047.44;;;25.35;65.04
6136;BME280;24008;42.664;23.372;2022-08-21T17:32:07;94012.97;;;25.17;64.82
6136;BME280;24008;42.664;23.372;2022-08-21T17:34:35;93893.72;;;24.08;64.57
6136;BME280;24008;42.664;23.372;2022-08-21T17:37:03;94046.44;;;25.15;64.41
6136;BME280;24008;42.664;23.372;2022-08-21T17:39:30;94047.53;;;25.19;65.53
6136;BME280;24008;42.664;23.372;2022-08-21T17:42:00;94041.81;;;25.22;65.56
6136;BME280;24008;42.664;23.372;2022-08-21T17:44:29;94037.56;;;25.16;66.42
6136;BME280;24008;42.664;23.372;2022-08-21T17:46:56;93945.66;;;24.48;66.40
6136;BME280;24008;42.664;23.372;2022-08-21T17:49:23;94052.22;;;25.17;66.37
6136;BME280;24008;42.664;23.372;2022-08-21T17:51:49;93957.38;;;24.46;67.08
6136;BME280;24008;42.664;23.372;2022-08-21T17:54:16;94058.97;;;25.12;67.40
6136;BME280;24008;42.664;23.372;2022-08-21T17:56:43;94060.53;;;25.13;67.25
6136;BME280;24008;42.664;23.372;2022-08-21T17:59:11;94040.28;;;24.99;67.31
6136;BME280;24008;42.664;23.372;2022-08-21T18:01:41;93982.09;;;24.60;67.08
6136;BME280;24008;42.664;23.372;2022-08-21T18:04:09;94057.91;;;25.08;67.87
6136;BME280;24008;42.664;23.372;2022-08-21T18:06:36;94050.91;;;24.92;68.99
6136;BME280;24008;42.664;23.372;2022-08-21T18:09:03;94046.69;;;24.91;68.95
6136;BME280;24008;42.664;23.372;2022-08-21T18:11:30;94073.75;;;25.02;69.40
6136;BME280;24008;42.664;23.372;2022-08-21T18:14:00;93943.16;;;24.15;69.77
6136;BME280;24008;42.664;23.372;2022-08-21T18:16:31;94079.22;;;25.00;69.51
6136;BME280;24008;42.664;23.372;2022-08-21T18:19:00;94088.66;;;25.01;68.72
6136;BME280;24008;42.664;23.372;2022-08-21T18:21:28;94081.84;;;25.00;69.03
6136;BME280;24008;42.664;23.372;2022-08-21T18:23:55;94091.50;;;25.00;69.40
6136;BME280;24008;42.664;23.372;2022-08-21T18:26:27;94090.22;;;24.97;69.48
6136;BME280;24008;42.664;23.372;2022-08-21T18:28:56;94089.19;;;24.98;69.04
6136;BME280;24008;42.664;23.372;2022-08-21T18:31:25;94085.91;;;24.91;69.37
6136;BME280;24008;42.664;23.372;2022-08-21T18:33:54;94091.56;;;24.83;70.01
6136;BME280;24008;42.664;23.372;2022-08-21T18:36:22;94067.63;;;24.69;69.86
6136;BME280;24008;42.664;23.372;2022-08-21T18:38:49;94079.00;;;24.80;70.07
6136;BME280;24008;42.664;23.372;2022-08-21T18:41:16;94077.88;;;24.76;70.55
6136;BME280;24008;42.664;23.372;2022-08-21T18:43:43;93938.88;;;23.87;70.58
6136;BME280;24008;42.664;23.372;2022-08-21T18:46:09;94066.00;;;24.63;71.95
6136;BME280;24008;42.664;23.372;2022-08-21T18:48:36;94073.84;;;24.63;71.49
6136;BME280;24008;42.664;23.372;2022-08-21T18:51:05;93995.06;;;24.11;71.97
6136;BME280;24008;42.664;23.372;2022-08-21T18:53:32;94074.56;;;24.59;72.46
6136;BME280;24008;42.664;23.372;2022-08-21T18:55:58;94079.00;;;24.58;72.78
6136;BME280;24008;42.664;23.372;2022-08-21T18:58:26;94069.09;;;24.38;73.66
6136;BME280;24008;42.664;23.372;2022-08-21T19:00:53;94074.50;;;24.54;73.93
6136;BME280;24008;42.664;23.372;2022-08-21T19:03:22;94083.66;;;24.56;73.94
6136;BME280;24008;42.664;23.372;2022-08-21T19:05:50;94043.31;;;24.25;73.89
6136;BME280;24008;42.664;23.372;2022-08-21T19:08:21;94042.41;;;24.20;73.78
6136;BME280;24008;42.664;23.372;2022-08-21T19:10:49;94036.19;;;24.21;73.74
6136;BME280;24008;42.664;23.372;2022-08-21T19:13:19;94089.69;;;24.57;72.98
6136;BME280;24008;42.664;23.372;2022-08-21T19:15:47;94092.78;;;24.54;71.95
6136;BME280;24008;42.664;23.372;2022-08-21T19:18:17;94099.59;;;24.55;71.92
6136;BME280;24008;42.664;23.372;2022-08-21T19:20:45;94098.00;;;24.54;71.65
6136;BME280;24008;42.664;23.372;2022-08-21T19:23:14;94097.72;;;24.50;71.45
6136;BME280;24008;42.664;23.372;2022-08-21T19:25:44;94101.66;;;24.53;70.79
6136;BME280;24008;42.664;23.372;2022-08-21T19:28:15;94110.50;;;24.52;70.40
6136;BME280;24008;42.664;23.372;2022-08-21T19:30:51;94108.41;;;24.49;70.01
6136;BME280;24008;42.664;23.372;2022-08-21T19:33:22;94032.19;;;23.96;70.20
6136;BME280;24008;42.664;23.372;2022-08-21T19:35:51;94118.22;;;24.41;70.64
6136;BME280;24008;42.664;23.372;2022-08-21T19:38:18;94111.19;;;24.42;70.19
6136;BME280;24008;42.664;23.372;2022-08-21T19:40:47;94094.03;;;24.29;70.65
6136;BME280;24008;42.664;23.372;2022-08-21T19:43:14;94082.44;;;23.87;70.78
6136;BME280;24008;42.664;23.372;2022-08-21T19:45:41;94118.25;;;23.75;71.30
6136;BME280;24008;42.664;23.372;2022-08-21T19:48:08;94130.78;;;23.32;72.53
6136;BME280;24008;42.664;23.372;2022-08-21T19:50:35;94130.88;;;22.81;74.63
6136;BME280;24008;42.664;23.372;2022-08-21T19:53:02;94077.75;;;22.70;74.54
6136;BME280;24008;42.664;23.372;2022-08-21T19:55:29;94127.38;;;23.15;73.53
6136;BME280;24008;42.664;23.372;2022-08-21T19:57:58;94129.94;;;23.27;72.96
6136;BME280;24008;42.664;23.372;2022-08-21T20:00:25;94057.50;;;22.49;72.32
6136;BME280;24008;42.664;23.372;2022-08-21T20:02:51;94128.47;;;23.19;72.07
6136;BME280;24008;42.664;23.372;2022-08-21T20:05:18;93932.88;;;22.12;71.09
6136;BME280;24008;42.664;23.372;2022-08-21T20:07:45;94124.66;;;23.39;70.50
6136;BME280;24008;42.664;23.372;2022-08-21T20:10:12;94116.59;;;23.40;69.97
6136;BME280;24008;42.664;23.372;2022-08-21T20:12:39;94128.44;;;23.59;69.37
6136;BME280;24008;42.664;23.372;2022-08-21T20:15:08;94127.81;;;23.69;69.40
6136;BME280;24008;42.664;23.372;2022-08-21T20:17:35;94132.56;;;23.72;69.32
6136;BME280;24008;42.664;23.372;2022-08-21T20:20:04;94114.69;;;23.81;68.94
6136;BME280;24008;42.664;23.372;2022-08-21T20:22:31;94117.38;;;23.86;69.02
6136;BME280;24008;42.664;23.372;2022-08-21T20:24:58;94079.09;;;23.58;68.37
6136;BME280;24008;42.664;23.372;2022-08-21T20:27:32;94058.81;;;23.48;68.14
6136;BME280;24008;42.664;23.372;2022-08-21T20:29:59;94120.94;;;23.80;68.07
6136;BME280;24008;42.664;23.372;2022-08-21T20:32:28;93984.06;;;23.04;67.77
6136;BME280;24008;42.664;23.372;2022-08-21T20:34:54;94115.47;;;23.98;67.40
6136;BME280;24008;42.664;23.372;2022-08-21T20:37:21;93668.16;;;20.94;68.66
6136;BME280;24008;42.664;23.372;2022-08-21T20:39:48;94111.19;;;23.92;69.53
6136;BME280;24008;42.664;23.372;2022-08-21T20:42:15;94120.38;;;23.94;69.51
6136;BME280;24008;42.664;23.372;2022-08-21T20:44:43;94121.41;;;23.93;69.83
6136;BME280;24008;42.664;23.372;2022-08-21T20:47:10;94118.00;;;23.93;70.52
6136;BME280;24008;42.664;23.372;2022-08-21T20:49:41;94039.69;;;23.43;70.45
6136;BME280;24008;42.664;23.372;2022-08-21T20:52:10;94114.22;;;23.84;71.22
6136;BME280;24008;42.664;23.372;2022-08-21T20:54:44;94109.31;;;23.87;71.31
6136;BME280;24008;42.664;23.372;2022-08-21T20:57:17;94095.94;;;23.84;72.09
6136;BME280;24008;42.664;23.372;2022-08-21T20:59:50;94105.75;;;23.93;72.45
6136;BME280;24008;42.664;23.372;2022-08-21T21:02:38;94095.78;;;23.74;72.62
6136;BME280;24008;42.664;23.372;2022-08-21T21:05:13;94120.78;;;23.86;72.95
6136;BME280;24008;42.664;23.372;2022-08-21T21:07:50;93743.50;;;21.46;72.92
6136;BME280;24008;42.664;23.372;2022-08-21T21:10:24;94012.19;;;23.18;73.37
6136;BME280;24008;42.664;23.372;2022-08-21T21:13:09;94128.63;;;23.86;73.49
6136;BME280;24008;42.664;23.372;2022-08-21T21:15:40;94134.59;;;23.70;73.56
6136;BME280;24008;42.664;23.372;2022-08-21T21:18:12;94054.88;;;23.29;74.03
6136;BME280;24008;42.664;23.372;2022-08-21T21:20:46;94005.03;;;22.97;74.46
6136;BME280;24008;42.664;23.372;2022-08-21T21:23:23;93691.13;;;20.74;74.21
6136;BME280;24008;42.664;23.372;2022-08-21T21:25:56;94110.44;;;23.46;74.45
6136;BME280;24008;42.664;23.372;2022-08-21T21:28:29;93843.88;;;21.87;74.60
6136;BME280;24008;42.664;23.372;2022-08-21T21:30:58;94058.97;;;23.25;74.58
6136;BME280;24008;42.664;23.372;2022-08-21T21:33:25;94067.50;;;23.37;74.58
6136;BME280;24008;42.664;23.372;2022-08-21T21:35:58;94132.16;;;23.80;74.59
6136;BME280;24008;42.664;23.372;2022-08-21T21:38:31;94132.56;;;23.72;74.50
6136;BME280;24008;42.664;23.372;2022-08-21T21:41:09;94121.09;;;23.73;74.13
6136;BME280;24008;42.664;23.372;2022-08-21T21:43:50;94124.81;;;23.77;74.33
6136;BME280;24008;42.664;23.372;2022-08-21T21:46:37;93737.16;;;21.25;74.00
6136;BME280;24008;42.664;23.372;2022-08-21T21:49:26;93657.81;;;20.71;73.74
6136;BME280;24008;42.664;23.372;2022-08-21T21:52:06;94014.31;;;22.76;73.50
6136;BME280;24008;42.664;23.372;2022-08-21T21:54:57;94129.56;;;23.63;73.14
6136;BME280;24008;42.664;23.372;2022-08-21T21:57:44;94096.75;;;23.39;72.96
6136;BME280;24008;42.664;23.372;2022-08-21T22:00:15;94128.44;;;23.59;73.16
6136;BME280;24008;42.664;23.372;2022-08-21T22:02:51;94127.63;;;23.59;73.16
6136;BME280;24008;42.664;23.372;2022-08-21T22:05:35;94051.44;;;23.12;73.01
6136;BME280;24008;42.664;23.372;2022-08-21T22:08:12;93982.38;;;22.69;72.97
6136;BME280;24008;42.664;23.372;2022-08-21T22:10:45;94142.16;;;23.55;72.47
6136;BME280;24008;42.664;23.372;2022-08-21T22:13:19;94132.09;;;23.47;72.17
6136;BME280;24008;42.664;23.372;2022-08-21T22:15:49;94136.44;;;23.41;72.29
6136;BME280;24008;42.664;23.372;2022-08-21T22:18:19;94124.56;;;23.33;72.05
6136;BME280;24008;42.664;23.372;2022-08-21T22:20:53;93988.13;;;22.43;72.23
6136;BME280;24008;42.664;23.372;2022-08-21T22:23:24;94061.22;;;22.76;72.18
6136;BME280;24008;42.664;23.372;2022-08-21T22:25:55;94084.69;;;23.05;72.83
6136;BME280;24008;42.664;23.372;2022-08-21T22:28:25;94126.41;;;23.21;72.76
6136;BME280;24008;42.664;23.372;2022-08-21T22:30:54;94134.00;;;23.23;72.80
6136;BME280;24008;42.664;23.372;2022-08-21T22:33:23;94121.59;;;23.13;73.13
6136;BME280;24008;42.664;23.372;2022-08-21T22:35:53;94097.09;;;22.86;73.71
6136;BME280;24008;42.664;23.372;2022-08-21T22:38:31;94113.34;;;23.05;73.75
6136;BME280;24008;42.664;23.372;2022-08-21T22:41:13;94115.63;;;23.01;73.94
6136;BME280;24008;42.664;23.372;2022-08-21T22:43:55;94109.19;;;22.92;74.19
6136;BME280;24008;42.664;23.372;2022-08-21T22:46:29;94052.19;;;22.55;74.31
6136;BME280;24008;42.664;23.372;2022-08-21T22:49:02;94089.28;;;22.74;74.71
6136;BME280;24008;42.664;23.372;2022-08-21T22:51:34;94131.97;;;22.85;74.53
6136;BME280;24008;42.664;23.372;2022-08-21T22:54:03;94086.31;;;22.82;74.81
6136;BME280;24008;42.664;23.372;2022-08-21T22:56:33;94096.28;;;22.85;74.78
6136;BME280;24008;42.664;23.372;2022-08-21T22:59:04;94058.50;;;22.59;74.84
6136;BME280;24008;42.664;23.372;2022-08-21T23:01:42;93862.56;;;21.20;74.54
6136;BME280;24008;42.664;23.372;2022-08-21T23:04:16;93697.53;;;20.13;74.50
6136;BME280;24008;42.664;23.372;2022-08-21T23:06:46;94124.38;;;22.83;74.53
6136;BME280;24008;42.664;23.372;2022-08-21T23:09:21;94100.63;;;22.80;74.79
6136;BME280;24008;42.664;23.372;2022-08-21T23:11:56;94099.84;;;22.79;74.79
6136;BME280;24008;42.664;23.372;2022-08-21T23:14:23;94044.97;;;22.34;74.91
6136;BME280;24008;42.664;23.372;2022-08-21T23:16:55;94112.31;;;22.77;74.74
6136;BME280;24008;42.664;23.372;2022-08-21T23:19:33;94110.56;;;22.71;74.80
6136;BME280;24008;42.664;23.372;2022-08-21T23:22:08;93962.78;;;21.75;74.72
6136;BME280;24008;42.664;23.372;2022-08-21T23:24:54;94123.50;;;22.66;75.10
6136;BME280;24008;42.664;23.372;2022-08-21T23:27:35;94123.50;;;22.66;74.99
6136;BME280;24008;42.664;23.372;2022-08-21T23:30:06;94115.69;;;22.66;74.92
6136;BME280;24008;42.664;23.372;2022-08-21T23:33:02;94131.22;;;22.61;75.20
6136;BME280;24008;42.664;23.372;2022-08-21T23:35:34;94090.72;;;22.42;75.54
6136;BME280;24008;42.664;23.372;2022-08-21T23:38:21;94115.81;;;22.59;75.59
6136;BME280;24008;42.664;23.372;2022-08-21T23:40:57;93963.47;;;21.59;74.95
6136;BME280;24008;42.664;23.372;2022-08-21T23:43:39;94056.19;;;22.23;75.58
6136;BME280;24008;42.664;23.372;2022-08-21T23:46:22;94006.09;;;21.81;75.85
6136;BME280;24008;42.664;23.372;2022-08-21T23:49:02;94128.50;;;22.56;75.47
6136;BME280;24008;42.664;23.372;2022-08-21T23:51:40;93762.81;;;19.98;75.40
6136;BME280;24008;42.664;23.372;2022-08-21T23:54:16;94128.50;;;22.56;75.56
6136;BME280;24008;42.664;23.372;2022-08-21T23:56:59;94131.69;;;22.58;75.45
6136;BME280;24008;42.664;23.372;2022-08-21T23:59:32;94070.00;;;22.35;74.95
